createdAt,value
2018-07-29T00:00:12.778Z,17.94
2018-07-29T00:01:12.769Z,17.96
2018-07-29T00:02:13.055Z,17.87
2018-07-29T00:03:12.789Z,17.76
2018-07-29T00:04:12.727Z,17.83
2018-07-29T00:05:12.715Z,17.69
2018-07-29T00:06:12.708Z,17.79
2018-07-29T00:07:12.687Z,17.76
2018-07-29T00:08:12.675Z,17.76
2018-07-29T00:09:13.015Z,17.76
2018-07-29T00:10:12.655Z,17.73
2018-07-29T00:11:12.636Z,17.71
2018-07-29T00:12:12.670Z,17.68
2018-07-29T00:13:12.610Z,17.65
2018-07-29T00:14:12.600Z,17.62
2018-07-29T00:15:12.884Z,17.57
2018-07-29T00:16:12.571Z,17.62
2018-07-29T00:17:12.575Z,17.73
2018-07-29T00:18:12.548Z,17.68
2018-07-29T00:19:12.531Z,17.63
2018-07-29T00:20:12.517Z,17.62
2018-07-29T00:21:12.808Z,17.62
2018-07-29T00:22:12.491Z,17.53
2018-07-29T00:23:12.476Z,17.49
2018-07-29T00:24:12.463Z,17.56
2018-07-29T00:25:12.456Z,17.52
2018-07-29T00:26:12.435Z,17.56
2018-07-29T00:27:12.726Z,17.52
2018-07-29T00:28:12.410Z,17.57
2018-07-29T00:29:12.402Z,17.49
2018-07-29T00:30:12.415Z,17.57
2018-07-29T00:31:12.372Z,17.49
2018-07-29T00:32:12.358Z,17.45
2018-07-29T00:33:12.644Z,17.49
2018-07-29T00:34:12.336Z,17.43
2018-07-29T00:35:12.323Z,17.53
2018-07-29T00:36:12.303Z,17.45
2018-07-29T00:37:12.294Z,17.39
2018-07-29T00:38:12.278Z,17.45
2018-07-29T00:39:12.579Z,17.50
2018-07-29T00:40:12.249Z,17.43
2018-07-29T00:41:12.256Z,17.43
2018-07-29T00:42:12.232Z,17.46
2018-07-29T00:43:12.207Z,17.43
2018-07-29T00:44:12.235Z,17.39
2018-07-29T00:45:12.487Z,17.37
2018-07-29T00:46:12.168Z,17.30
2018-07-29T00:47:12.157Z,17.32
2018-07-29T00:48:12.143Z,17.34
2018-07-29T00:49:12.127Z,17.38
2018-07-29T00:50:12.113Z,17.31
2018-07-29T00:51:12.400Z,17.39
2018-07-29T00:52:12.097Z,17.47
2018-07-29T00:53:12.150Z,17.43
2018-07-29T00:54:12.060Z,17.49
2018-07-29T00:55:12.046Z,17.41
2018-07-29T00:56:12.033Z,17.31
2018-07-29T00:57:12.070Z,17.32
2018-07-29T00:58:12.307Z,17.28
2018-07-29T00:59:11.992Z,17.25
2018-07-29T01:00:11.978Z,17.20
2018-07-29T01:01:11.966Z,17.34
2018-07-29T01:02:11.952Z,17.27
2018-07-29T01:03:11.987Z,17.20
2018-07-29T01:04:11.924Z,17.25
2018-07-29T01:05:12.212Z,17.22
2018-07-29T01:06:11.895Z,17.30
2018-07-29T01:07:11.884Z,17.27
2018-07-29T01:08:12.075Z,17.16
2018-07-29T01:09:11.949Z,17.20
2018-07-29T01:10:11.842Z,17.13
2018-07-29T01:11:11.829Z,17.12
2018-07-29T01:12:12.118Z,17.10
2018-07-29T01:13:11.806Z,17.10
2018-07-29T01:14:11.791Z,17.09
2018-07-29T01:15:11.824Z,17.13
2018-07-29T01:16:11.760Z,17.06
2018-07-29T01:17:11.747Z,17.07
2018-07-29T01:18:11.737Z,17.01
2018-07-29T01:19:11.720Z,17.06
2018-07-29T01:20:11.711Z,17.02
2018-07-29T01:21:11.743Z,17.09
2018-07-29T01:22:11.679Z,17.02
2018-07-29T01:23:11.666Z,17.10
2018-07-29T01:24:11.653Z,16.95
2018-07-29T01:25:11.939Z,16.99
2018-07-29T01:26:11.625Z,16.97
2018-07-29T01:27:11.660Z,16.98
2018-07-29T01:28:11.599Z,16.99
2018-07-29T01:29:11.589Z,17.01
2018-07-29T01:30:11.571Z,16.97
2018-07-29T01:31:11.558Z,16.95
2018-07-29T01:32:11.842Z,16.94
2018-07-29T01:33:11.580Z,17.01
2018-07-29T01:34:11.516Z,17.02
2018-07-29T01:35:11.504Z,16.95
2018-07-29T01:36:11.489Z,16.98
2018-07-29T01:37:11.475Z,16.99
2018-07-29T01:38:11.465Z,16.91
2018-07-29T01:39:11.748Z,16.94
2018-07-29T01:40:11.436Z,16.92
2018-07-29T01:41:11.419Z,16.95
2018-07-29T01:42:11.405Z,16.94
2018-07-29T01:43:11.392Z,16.94
2018-07-29T01:44:11.379Z,16.98
2018-07-29T01:45:11.413Z,16.94
2018-07-29T01:46:11.383Z,16.94
2018-07-29T01:47:11.343Z,16.91
2018-07-29T01:48:11.323Z,16.95
2018-07-29T01:49:11.311Z,16.98
2018-07-29T01:50:11.296Z,17.01
2018-07-29T01:51:11.333Z,17.02
2018-07-29T01:52:11.568Z,17.04
2018-07-29T01:53:11.286Z,17.04
2018-07-29T01:54:11.239Z,16.99
2018-07-29T01:55:11.228Z,16.99
2018-07-29T01:56:11.212Z,17.01
2018-07-29T01:57:11.252Z,17.06
2018-07-29T01:58:11.487Z,17.02
2018-07-29T01:59:11.173Z,16.97
2018-07-29T02:00:11.160Z,17.01
2018-07-29T02:01:11.145Z,16.97
2018-07-29T02:02:11.129Z,16.95
2018-07-29T02:03:11.168Z,16.99
2018-07-29T02:04:11.404Z,16.91
2018-07-29T02:05:11.090Z,16.98
2018-07-29T02:06:11.074Z,17.02
2018-07-29T02:07:11.061Z,17.01
2018-07-29T02:08:11.049Z,16.99
2018-07-29T02:09:11.086Z,16.92
2018-07-29T02:10:11.325Z,16.92
2018-07-29T02:11:11.006Z,16.95
2018-07-29T02:12:10.995Z,16.98
2018-07-29T02:13:10.979Z,16.99
2018-07-29T02:14:10.966Z,16.91
2018-07-29T02:15:11.001Z,16.92
2018-07-29T02:16:11.235Z,16.97
2018-07-29T02:17:10.923Z,16.97
2018-07-29T02:18:10.916Z,16.95
2018-07-29T02:19:10.897Z,16.91
2018-07-29T02:20:10.883Z,16.92
2018-07-29T02:21:10.920Z,16.87
2018-07-29T02:22:11.161Z,16.94
2018-07-29T02:23:10.845Z,16.84
2018-07-29T02:24:10.826Z,16.88
2018-07-29T02:25:10.812Z,16.83
2018-07-29T02:26:10.799Z,16.79
2018-07-29T02:27:10.835Z,16.87
2018-07-29T02:28:10.774Z,16.79
2018-07-29T02:29:11.057Z,16.69
2018-07-29T02:30:10.742Z,16.65
2018-07-29T02:31:10.728Z,16.59
2018-07-29T02:32:10.717Z,16.54
2018-07-29T02:33:10.752Z,16.51
2018-07-29T02:34:10.688Z,16.59
2018-07-29T02:35:10.671Z,16.55
2018-07-29T02:36:10.962Z,16.52
2018-07-29T02:37:10.647Z,16.43
2018-07-29T02:38:10.631Z,16.57
2018-07-29T02:39:10.672Z,16.43
2018-07-29T02:40:10.620Z,16.47
2018-07-29T02:41:10.632Z,16.47
2018-07-29T02:42:10.586Z,16.39
2018-07-29T02:43:10.862Z,16.39
2018-07-29T02:44:10.549Z,16.40
2018-07-29T02:45:10.585Z,16.39
2018-07-29T02:46:10.522Z,16.29
2018-07-29T02:47:10.506Z,16.40
2018-07-29T02:48:10.496Z,16.46
2018-07-29T02:49:10.479Z,16.37
2018-07-29T02:50:10.768Z,16.40
2018-07-29T02:51:10.503Z,16.33
2018-07-29T02:52:10.439Z,16.24
2018-07-29T02:53:10.425Z,16.32
2018-07-29T02:54:10.409Z,16.26
2018-07-29T02:55:10.396Z,16.34
2018-07-29T02:56:10.383Z,16.28
2018-07-29T02:57:10.667Z,16.22
2018-07-29T02:58:10.353Z,16.14
2018-07-29T02:59:10.356Z,16.25
2018-07-29T03:00:10.329Z,16.14
2018-07-29T03:01:10.317Z,16.16
2018-07-29T03:02:10.297Z,16.18
2018-07-29T03:03:10.334Z,16.10
2018-07-29T03:04:10.566Z,16.02
2018-07-29T03:05:10.260Z,16.05
2018-07-29T03:06:10.243Z,16.05
2018-07-29T03:07:10.225Z,15.96
2018-07-29T03:08:10.211Z,15.91
2018-07-29T03:09:10.264Z,15.93
2018-07-29T03:10:10.183Z,16.03
2018-07-29T03:11:10.470Z,16.06
2018-07-29T03:12:10.162Z,16.05
2018-07-29T03:13:10.142Z,16.05
2018-07-29T03:14:10.135Z,16.21
2018-07-29T03:15:10.165Z,16.26
2018-07-29T03:16:10.104Z,16.32
2018-07-29T03:17:10.385Z,16.32
2018-07-29T03:18:10.080Z,16.29
2018-07-29T03:19:10.055Z,16.26
2018-07-29T03:20:10.046Z,16.14
2018-07-29T03:21:10.079Z,16.17
2018-07-29T03:22:10.014Z,16.17
2018-07-29T03:23:10.297Z,16.08
2018-07-29T03:24:09.991Z,16.03
2018-07-29T03:25:09.972Z,16.03
2018-07-29T03:26:09.956Z,16.06
2018-07-29T03:27:09.992Z,15.96
2018-07-29T03:28:09.930Z,15.83
2018-07-29T03:29:10.215Z,15.85
2018-07-29T03:30:09.900Z,15.81
2018-07-29T03:31:09.911Z,15.81
2018-07-29T03:32:09.873Z,15.83
2018-07-29T03:33:09.906Z,15.78
2018-07-29T03:34:09.841Z,15.81
2018-07-29T03:35:10.129Z,15.77
2018-07-29T03:36:09.812Z,15.84
2018-07-29T03:37:09.800Z,15.78
2018-07-29T03:38:09.784Z,15.81
2018-07-29T03:39:09.820Z,15.81
2018-07-29T03:40:09.759Z,15.81
2018-07-29T03:41:10.042Z,15.76
2018-07-29T03:42:09.791Z,15.68
2018-07-29T03:43:09.713Z,15.77
2018-07-29T03:44:09.700Z,15.65
2018-07-29T03:45:09.735Z,15.76
2018-07-29T03:46:09.670Z,15.65
2018-07-29T03:47:09.956Z,15.73
2018-07-29T03:48:09.641Z,15.76
2018-07-29T03:49:09.627Z,15.63
2018-07-29T03:50:09.614Z,15.76
2018-07-29T03:51:09.648Z,15.70
2018-07-29T03:52:09.584Z,15.78
2018-07-29T03:53:09.871Z,15.80
2018-07-29T03:54:09.556Z,15.85
2018-07-29T03:55:09.548Z,15.83
2018-07-29T03:56:09.527Z,15.85
2018-07-29T03:57:09.561Z,15.87
2018-07-29T03:58:09.496Z,15.78
2018-07-29T03:59:09.483Z,15.84
2018-07-29T04:00:09.770Z,15.88
2018-07-29T04:01:09.459Z,15.73
2018-07-29T04:02:09.440Z,15.83
2018-07-29T04:03:09.476Z,15.73
2018-07-29T04:04:09.410Z,15.65
2018-07-29T04:05:09.399Z,15.68
2018-07-29T04:06:09.381Z,15.63
2018-07-29T04:07:09.670Z,15.70
2018-07-29T04:08:09.354Z,15.72
2018-07-29T04:09:09.392Z,15.66
2018-07-29T04:10:09.324Z,15.73
2018-07-29T04:11:09.311Z,15.62
2018-07-29T04:12:09.357Z,15.65
2018-07-29T04:13:09.284Z,15.68
2018-07-29T04:14:09.568Z,15.66
2018-07-29T04:15:09.302Z,15.68
2018-07-29T04:16:09.237Z,15.69
2018-07-29T04:17:09.226Z,15.68
2018-07-29T04:18:09.219Z,15.60
2018-07-29T04:19:09.194Z,15.59
2018-07-29T04:20:09.181Z,15.66
2018-07-29T04:21:09.466Z,15.60
2018-07-29T04:22:09.157Z,15.56
2018-07-29T04:23:09.139Z,15.62
2018-07-29T04:24:09.122Z,15.66
2018-07-29T04:25:09.111Z,15.77
2018-07-29T04:26:09.098Z,15.77
2018-07-29T04:27:09.130Z,15.85
2018-07-29T04:28:09.368Z,15.85
2018-07-29T04:29:09.055Z,15.76
2018-07-29T04:30:09.040Z,15.70
2018-07-29T04:31:09.024Z,15.68
2018-07-29T04:32:09.012Z,15.65
2018-07-29T04:33:09.046Z,15.70
2018-07-29T04:34:08.979Z,15.72
2018-07-29T04:35:09.269Z,15.68
2018-07-29T04:36:08.953Z,15.68
2018-07-29T04:37:08.937Z,15.77
2018-07-29T04:38:08.920Z,15.80
2018-07-29T04:39:08.959Z,15.70
2018-07-29T04:40:08.898Z,15.73
2018-07-29T04:41:08.878Z,15.66
2018-07-29T04:42:09.165Z,15.66
2018-07-29T04:43:08.850Z,15.63
2018-07-29T04:44:08.838Z,15.63
2018-07-29T04:45:08.873Z,15.65
2018-07-29T04:46:08.806Z,15.68
2018-07-29T04:47:08.799Z,15.76
2018-07-29T04:48:09.079Z,15.76
2018-07-29T04:49:08.770Z,15.73
2018-07-29T04:50:08.749Z,15.85
2018-07-29T04:51:08.784Z,15.81
2018-07-29T04:52:08.722Z,15.84
2018-07-29T04:53:08.708Z,15.83
2018-07-29T04:54:08.992Z,15.88
2018-07-29T04:55:08.678Z,15.90
2018-07-29T04:56:08.663Z,15.99
2018-07-29T04:57:08.698Z,16.05
2018-07-29T04:58:08.637Z,16.05
2018-07-29T04:59:08.632Z,16.00
2018-07-29T05:00:08.909Z,16.02
2018-07-29T05:01:08.593Z,16.02
2018-07-29T05:02:08.577Z,16.06
2018-07-29T05:03:08.612Z,16.14
2018-07-29T05:04:08.556Z,16.17
2018-07-29T05:05:08.535Z,16.14
2018-07-29T05:06:08.824Z,16.21
2018-07-29T05:07:08.511Z,16.14
2018-07-29T05:08:08.493Z,16.18
2018-07-29T05:09:08.530Z,16.21
2018-07-29T05:10:08.462Z,16.26
2018-07-29T05:11:08.450Z,16.34
2018-07-29T05:12:08.435Z,16.37
2018-07-29T05:13:08.423Z,16.39
2018-07-29T05:14:08.409Z,16.39
2018-07-29T05:15:08.441Z,16.43
2018-07-29T05:16:08.379Z,16.46
2018-07-29T05:17:08.365Z,16.43
2018-07-29T05:18:08.652Z,16.57
2018-07-29T05:19:08.336Z,16.59
2018-07-29T05:20:08.324Z,16.55
2018-07-29T05:21:08.359Z,16.51
2018-07-29T05:22:08.293Z,16.58
2018-07-29T05:23:08.287Z,16.58
2018-07-29T05:24:08.267Z,16.59
2018-07-29T05:25:08.350Z,16.62
2018-07-29T05:26:08.239Z,16.65
2018-07-29T05:27:08.278Z,16.64
2018-07-29T05:28:08.211Z,16.65
2018-07-29T05:29:08.199Z,16.72
2018-07-29T05:30:08.486Z,16.84
2018-07-29T05:31:08.169Z,16.92
2018-07-29T05:32:08.158Z,16.98
2018-07-29T05:33:08.197Z,16.94
2018-07-29T05:34:08.135Z,17.07
2018-07-29T05:35:08.116Z,17.01
2018-07-29T05:36:08.104Z,17.10
2018-07-29T05:37:08.389Z,17.04
2018-07-29T05:38:08.076Z,17.09
2018-07-29T05:39:08.114Z,17.14
2018-07-29T05:40:08.050Z,17.19
2018-07-29T05:41:08.036Z,17.20
2018-07-29T05:42:08.021Z,17.19
2018-07-29T05:43:08.009Z,17.32
2018-07-29T05:44:08.293Z,17.34
2018-07-29T05:45:08.048Z,17.32
2018-07-29T05:46:07.968Z,17.38
2018-07-29T05:47:07.956Z,17.45
2018-07-29T05:48:07.942Z,17.49
2018-07-29T05:49:07.926Z,17.46
2018-07-29T05:50:07.920Z,17.43
2018-07-29T05:51:08.202Z,17.39
2018-07-29T05:52:07.887Z,17.45
2018-07-29T05:53:07.875Z,17.47
2018-07-29T05:54:07.864Z,17.43
2018-07-29T05:55:07.878Z,17.53
2018-07-29T05:56:07.892Z,17.62
2018-07-29T05:57:07.877Z,17.63
2018-07-29T05:58:08.110Z,17.66
2018-07-29T05:59:07.794Z,17.62
2018-07-29T06:00:07.784Z,17.59
2018-07-29T06:01:07.777Z,17.63
2018-07-29T06:02:07.757Z,17.63
2018-07-29T06:03:07.794Z,17.53
2018-07-29T06:04:07.760Z,17.53
2018-07-29T06:05:08.023Z,17.68
2018-07-29T06:06:07.704Z,17.65
2018-07-29T06:07:07.691Z,17.66
2018-07-29T06:08:07.679Z,17.69
2018-07-29T06:09:07.722Z,17.73
2018-07-29T06:10:07.652Z,17.81
2018-07-29T06:11:07.638Z,17.78
2018-07-29T06:12:07.926Z,17.79
2018-07-29T06:13:07.615Z,17.76
2018-07-29T06:14:07.599Z,17.69
2018-07-29T06:15:07.662Z,17.72
2018-07-29T06:16:07.577Z,17.79
2018-07-29T06:17:07.578Z,17.76
2018-07-29T06:18:07.551Z,17.93
2018-07-29T06:19:07.841Z,17.90
2018-07-29T06:20:07.523Z,17.94
2018-07-29T06:21:07.560Z,17.96
2018-07-29T06:22:07.496Z,17.94
2018-07-29T06:23:07.489Z,18.01
2018-07-29T06:24:07.477Z,18.13
2018-07-29T06:25:07.763Z,18.05
2018-07-29T06:26:07.514Z,18.13
2018-07-29T06:27:07.486Z,18.12
2018-07-29T06:28:07.453Z,18.13
2018-07-29T06:29:07.412Z,18.12
2018-07-29T06:30:07.397Z,18.13
2018-07-29T06:31:07.683Z,18.18
2018-07-29T06:32:07.372Z,18.20
2018-07-29T06:33:07.409Z,18.21
2018-07-29T06:34:07.347Z,18.23
2018-07-29T06:35:07.332Z,18.23
2018-07-29T06:36:07.321Z,18.18
2018-07-29T06:37:07.307Z,18.26
2018-07-29T06:38:07.296Z,18.26
2018-07-29T06:39:07.333Z,18.20
2018-07-29T06:40:07.271Z,18.20
2018-07-29T06:41:07.258Z,18.23
2018-07-29T06:42:07.244Z,18.17
2018-07-29T06:43:07.534Z,18.31
2018-07-29T06:44:07.223Z,18.36
2018-07-29T06:45:07.259Z,18.36
2018-07-29T06:46:07.195Z,18.39
2018-07-29T06:47:07.217Z,18.46
2018-07-29T06:48:07.169Z,18.52
2018-07-29T06:49:07.504Z,18.38
2018-07-29T06:50:07.144Z,18.36
2018-07-29T06:51:07.184Z,18.33
2018-07-29T06:52:07.130Z,18.31
2018-07-29T06:53:07.109Z,18.21
2018-07-29T06:54:07.095Z,18.12
2018-07-29T06:55:07.399Z,18.12
2018-07-29T06:56:07.087Z,18.12
2018-07-29T06:57:07.110Z,18.09
2018-07-29T06:58:07.052Z,18.18
2018-07-29T06:59:07.105Z,18.33
2018-07-29T07:00:07.029Z,18.28
2018-07-29T07:01:07.010Z,18.23
2018-07-29T07:02:07.300Z,18.30
2018-07-29T07:03:07.067Z,18.26
2018-07-29T07:04:06.973Z,18.18
2018-07-29T07:05:07.002Z,18.15
2018-07-29T07:06:06.949Z,18.18
2018-07-29T07:07:06.937Z,18.36
2018-07-29T07:08:06.925Z,18.38
2018-07-29T07:09:07.219Z,18.24
2018-07-29T07:10:06.899Z,18.23
2018-07-29T07:11:06.889Z,18.42
2018-07-29T07:12:06.876Z,18.30
2018-07-29T07:13:06.869Z,18.38
2018-07-29T07:14:06.852Z,18.34
2018-07-29T07:15:06.941Z,18.38
2018-07-29T07:16:07.134Z,18.52
2018-07-29T07:17:06.818Z,18.71
2018-07-29T07:18:06.875Z,18.71
2018-07-29T07:19:06.789Z,18.67
2018-07-29T07:20:06.780Z,18.56
2018-07-29T07:21:06.815Z,18.68
2018-07-29T07:22:06.754Z,18.68
2018-07-29T07:23:07.042Z,18.82
2018-07-29T07:24:06.731Z,18.79
2018-07-29T07:25:06.731Z,18.97
2018-07-29T07:26:06.751Z,19.01
2018-07-29T07:27:06.841Z,19.04
2018-07-29T07:28:06.680Z,19.07
2018-07-29T07:29:06.670Z,19.27
2018-07-29T07:30:06.963Z,19.34
2018-07-29T07:31:06.644Z,19.27
2018-07-29T07:32:06.631Z,19.38
2018-07-29T07:33:07.871Z,19.44
2018-07-29T07:34:06.620Z,19.62
2018-07-29T07:35:06.651Z,19.56
2018-07-29T07:36:06.588Z,19.60
2018-07-29T07:37:06.908Z,19.86
2018-07-29T07:38:06.576Z,20.08
2018-07-29T07:39:06.599Z,19.97
2018-07-29T07:40:06.554Z,20.14
2018-07-29T07:41:06.638Z,20.37
2018-07-29T07:42:06.513Z,20.36
2018-07-29T07:43:06.506Z,20.65
2018-07-29T07:44:06.793Z,20.65
2018-07-29T07:45:06.532Z,20.83
2018-07-29T07:46:06.579Z,21.01
2018-07-29T07:47:06.537Z,21.22
2018-07-29T07:48:06.446Z,21.35
2018-07-29T07:49:06.444Z,21.59
2018-07-29T07:50:06.431Z,21.59
2018-07-29T07:51:06.717Z,21.80
2018-07-29T07:52:06.402Z,21.71
2018-07-29T07:53:06.392Z,21.78
2018-07-29T07:54:06.472Z,21.96
2018-07-29T07:55:06.373Z,22.03
2018-07-29T07:56:06.360Z,22.00
2018-07-29T07:57:06.653Z,22.18
2018-07-29T07:58:06.386Z,22.22
2018-07-29T07:59:06.325Z,22.41
2018-07-29T08:00:06.361Z,22.55
2018-07-29T08:01:06.331Z,22.71
2018-07-29T08:02:06.320Z,22.89
2018-07-29T08:03:06.593Z,22.88
2018-07-29T08:04:06.279Z,22.95
2018-07-29T08:05:06.275Z,22.70
2018-07-29T08:06:06.255Z,22.80
2018-07-29T08:07:06.248Z,22.76
2018-07-29T08:08:06.237Z,22.58
2018-07-29T08:09:06.581Z,22.67
2018-07-29T08:10:06.269Z,22.86
2018-07-29T08:11:06.209Z,23.01
2018-07-29T08:12:06.205Z,23.10
2018-07-29T08:13:06.191Z,23.03
2018-07-29T08:14:06.179Z,23.07
2018-07-29T08:15:06.577Z,22.96
2018-07-29T08:16:06.190Z,23.07
2018-07-29T08:17:06.153Z,23.18
2018-07-29T08:18:06.198Z,22.96
2018-07-29T08:19:06.171Z,22.93
2018-07-29T08:20:06.129Z,23.23
2018-07-29T08:21:06.527Z,23.06
2018-07-29T08:22:06.108Z,22.99
2018-07-29T08:23:06.101Z,22.99
2018-07-29T08:24:06.095Z,22.95
2018-07-29T08:25:06.100Z,22.99
2018-07-29T08:26:06.076Z,22.99
2018-07-29T08:27:06.372Z,22.93
2018-07-29T08:28:06.119Z,22.86
2018-07-29T08:29:06.057Z,22.98
2018-07-29T08:30:06.093Z,23.07
2018-07-29T08:31:06.031Z,22.99
2018-07-29T08:32:06.056Z,23.10
2018-07-29T08:33:06.328Z,23.31
2018-07-29T08:34:06.008Z,23.31
2018-07-29T08:35:06.060Z,23.56
2018-07-29T08:36:05.994Z,23.81
2018-07-29T08:37:05.986Z,23.85
2018-07-29T08:38:06.016Z,24.11
2018-07-29T08:39:06.018Z,24.28
2018-07-29T08:40:06.259Z,24.65
2018-07-29T08:41:05.950Z,24.84
2018-07-29T08:42:05.942Z,24.85
2018-07-29T08:43:05.972Z,25.16
2018-07-29T08:44:05.928Z,25.55
2018-07-29T08:45:05.982Z,25.56
2018-07-29T08:46:05.949Z,25.77
2018-07-29T08:47:06.207Z,25.74
2018-07-29T08:48:05.905Z,25.78
2018-07-29T08:49:05.891Z,25.27
2018-07-29T08:50:05.887Z,24.75
2018-07-29T08:51:05.930Z,24.75
2018-07-29T08:52:05.921Z,24.43
2018-07-29T08:53:06.170Z,24.38
2018-07-29T08:54:05.859Z,24.28
2018-07-29T08:55:05.901Z,24.15
2018-07-29T08:56:05.866Z,24.04
2018-07-29T08:57:05.914Z,24.07
2018-07-29T08:58:05.881Z,23.96
2018-07-29T08:59:05.893Z,23.73
2018-07-29T09:00:06.194Z,23.73
2018-07-29T09:01:05.829Z,23.88
2018-07-29T09:02:05.813Z,23.98
2018-07-29T09:03:05.855Z,24.03
2018-07-29T09:04:05.930Z,24.22
2018-07-29T09:05:05.796Z,24.36
2018-07-29T09:06:06.094Z,24.58
2018-07-29T09:07:05.783Z,24.56
2018-07-29T09:08:05.773Z,24.68
2018-07-29T09:09:05.821Z,24.81
2018-07-29T09:10:05.759Z,24.91
2018-07-29T09:11:05.841Z,24.90
2018-07-29T09:12:05.747Z,25.08
2018-07-29T09:13:06.044Z,25.33
2018-07-29T09:14:05.831Z,25.38
2018-07-29T09:15:05.805Z,25.58
2018-07-29T09:16:05.723Z,25.66
2018-07-29T09:17:05.718Z,25.78
2018-07-29T09:18:05.717Z,25.71
2018-07-29T09:19:05.710Z,25.88
2018-07-29T09:20:06.007Z,25.88
2018-07-29T09:21:05.755Z,26.19
2018-07-29T09:22:05.691Z,26.26
2018-07-29T09:23:05.680Z,26.24
2018-07-29T09:24:05.672Z,26.19
2018-07-29T09:25:05.697Z,26.34
2018-07-29T09:26:05.681Z,26.39
2018-07-29T09:27:05.959Z,26.51
2018-07-29T09:28:05.653Z,26.56
2018-07-29T09:29:05.863Z,26.70
2018-07-29T09:30:05.644Z,26.79
2018-07-29T09:31:05.759Z,26.95
2018-07-29T09:32:05.996Z,27.13
2018-07-29T09:33:05.930Z,27.27
2018-07-29T09:34:05.662Z,27.32
2018-07-29T09:35:05.633Z,27.47
2018-07-29T09:36:05.619Z,27.58
2018-07-29T09:37:05.615Z,27.70
2018-07-29T09:38:05.613Z,27.70
2018-07-29T09:39:05.989Z,27.87
2018-07-29T09:40:05.855Z,27.75
2018-07-29T09:41:05.603Z,27.73
2018-07-29T09:42:05.599Z,27.87
2018-07-29T09:43:05.604Z,27.88
2018-07-29T09:44:05.592Z,28.12
2018-07-29T09:45:05.705Z,28.00
2018-07-29T09:46:05.886Z,28.12
2018-07-29T09:47:05.590Z,28.31
2018-07-29T09:48:05.584Z,28.35
2018-07-29T09:49:05.621Z,28.38
2018-07-29T09:50:05.579Z,28.52
2018-07-29T09:51:05.630Z,28.50
2018-07-29T09:52:05.578Z,28.54
2018-07-29T09:53:05.874Z,28.72
2018-07-29T09:54:05.576Z,28.91
2018-07-29T09:55:05.606Z,28.96
2018-07-29T09:56:05.576Z,28.98
2018-07-29T09:57:05.623Z,29.02
2018-07-29T09:58:05.619Z,29.24
2018-07-29T09:59:05.871Z,29.17
2018-07-29T10:00:05.579Z,29.22
2018-07-29T10:01:05.571Z,28.91
2018-07-29T10:02:05.566Z,29.03
2018-07-29T10:03:05.651Z,29.09
2018-07-29T10:04:05.571Z,29.15
2018-07-29T10:05:05.872Z,29.03
2018-07-29T10:06:05.567Z,28.96
2018-07-29T10:07:05.572Z,29.17
2018-07-29T10:08:05.566Z,29.24
2018-07-29T10:09:05.724Z,29.36
2018-07-29T10:10:05.566Z,29.59
2018-07-29T10:11:05.899Z,29.55
2018-07-29T10:12:05.567Z,29.68
2018-07-29T10:13:05.569Z,30.08
2018-07-29T10:14:05.621Z,30.13
2018-07-29T10:15:05.618Z,30.15
2018-07-29T10:16:05.572Z,29.50
2018-07-29T10:17:05.573Z,29.63
2018-07-29T10:18:05.570Z,29.92
2018-07-29T10:19:05.573Z,30.00
2018-07-29T10:20:05.634Z,30.28
2018-07-29T10:21:05.655Z,30.52
2018-07-29T10:22:05.576Z,30.58
2018-07-29T10:23:05.903Z,30.64
2018-07-29T10:24:05.576Z,30.67
2018-07-29T10:25:05.592Z,30.73
2018-07-29T10:26:05.585Z,30.43
2018-07-29T10:27:05.667Z,30.28
2018-07-29T10:28:05.596Z,30.37
2018-07-29T10:29:05.895Z,30.56
2018-07-29T10:30:05.585Z,30.78
2018-07-29T10:31:05.585Z,30.86
2018-07-29T10:32:05.588Z,30.95
2018-07-29T10:33:05.643Z,30.90
2018-07-29T10:34:05.595Z,30.88
2018-07-29T10:35:05.897Z,31.24
2018-07-29T10:36:05.595Z,31.02
2018-07-29T10:37:05.597Z,29.95
2018-07-29T10:38:05.598Z,29.80
2018-07-29T10:39:05.651Z,30.14
2018-07-29T10:40:05.607Z,30.51
2018-07-29T10:41:05.908Z,30.73
2018-07-29T10:42:05.607Z,30.97
2018-07-29T10:43:05.613Z,30.86
2018-07-29T10:44:05.611Z,30.52
2018-07-29T10:45:05.679Z,30.62
2018-07-29T10:46:05.620Z,30.83
2018-07-29T10:47:05.620Z,31.27
2018-07-29T10:48:05.923Z,31.74
2018-07-29T10:49:05.627Z,32.06
2018-07-29T10:50:05.628Z,31.24
2018-07-29T10:51:05.679Z,31.60
2018-07-29T10:52:05.633Z,32.31
2018-07-29T10:53:05.691Z,32.02
2018-07-29T10:54:05.647Z,31.68
2018-07-29T10:55:05.942Z,31.44
2018-07-29T10:56:05.652Z,31.45
2018-07-29T10:57:05.699Z,31.70
2018-07-29T10:58:05.680Z,30.52
2018-07-29T10:59:05.672Z,30.89
2018-07-29T11:00:05.653Z,30.74
2018-07-29T11:01:05.958Z,30.77
2018-07-29T11:02:05.864Z,30.48
2018-07-29T11:03:05.725Z,30.28
2018-07-29T11:04:05.669Z,29.74
2018-07-29T11:05:05.717Z,29.66
2018-07-29T11:06:05.670Z,29.62
2018-07-29T11:07:05.987Z,29.68
2018-07-29T11:08:05.681Z,29.98
2018-07-29T11:09:05.728Z,30.14
2018-07-29T11:10:05.685Z,30.99
2018-07-29T11:11:05.734Z,31.66
2018-07-29T11:12:05.689Z,31.74
2018-07-29T11:13:05.985Z,31.37
2018-07-29T11:14:05.687Z,31.74
2018-07-29T11:15:05.743Z,32.45
2018-07-29T11:16:05.689Z,31.38
2018-07-29T11:17:05.746Z,30.45
2018-07-29T11:18:05.698Z,30.75
2018-07-29T11:19:06.058Z,31.49
2018-07-29T11:20:05.705Z,30.92
2018-07-29T11:21:05.882Z,30.89
2018-07-29T11:22:05.709Z,29.98
2018-07-29T11:23:05.711Z,30.08
2018-07-29T11:24:05.735Z,29.36
2018-07-29T11:25:06.024Z,28.87
2018-07-29T11:26:05.711Z,28.69
2018-07-29T11:27:05.777Z,28.91
2018-07-29T11:28:05.775Z,29.28
2018-07-29T11:29:05.718Z,29.78
2018-07-29T11:30:05.719Z,30.17
2018-07-29T11:31:06.020Z,30.40
2018-07-29T11:32:05.729Z,30.20
2018-07-29T11:33:05.771Z,29.93
2018-07-29T11:34:05.728Z,29.66
2018-07-29T11:35:05.780Z,29.31
2018-07-29T11:36:05.845Z,28.79
2018-07-29T11:37:06.024Z,28.93
2018-07-29T11:38:05.783Z,29.09
2018-07-29T11:39:05.773Z,29.17
2018-07-29T11:40:05.780Z,29.19
2018-07-29T11:41:05.732Z,29.24
2018-07-29T11:42:05.728Z,29.41
2018-07-29T11:43:05.731Z,29.46
2018-07-29T11:44:06.072Z,29.44
2018-07-29T11:45:05.772Z,29.68
2018-07-29T11:46:05.720Z,29.36
2018-07-29T11:47:05.719Z,28.87
2018-07-29T11:48:05.722Z,29.24
2018-07-29T11:49:05.721Z,29.61
2018-07-29T11:50:06.024Z,29.87
2018-07-29T11:51:05.771Z,30.59
2018-07-29T11:52:05.719Z,31.22
2018-07-29T11:53:05.717Z,31.11
2018-07-29T11:54:05.720Z,30.78
2018-07-29T11:55:05.743Z,30.18
2018-07-29T11:56:06.011Z,30.10
2018-07-29T11:57:05.765Z,30.03
2018-07-29T11:58:05.709Z,30.17
2018-07-29T11:59:05.730Z,30.59
2018-07-29T12:00:05.766Z,30.88
2018-07-29T12:01:05.729Z,30.93
2018-07-29T12:02:06.011Z,31.60
2018-07-29T12:03:05.833Z,32.16
2018-07-29T12:04:05.728Z,32.17
2018-07-29T12:05:05.759Z,31.76
2018-07-29T12:06:05.718Z,31.61
2018-07-29T12:07:05.703Z,31.66
2018-07-29T12:08:05.701Z,31.82
2018-07-29T12:09:06.005Z,31.84
2018-07-29T12:10:05.702Z,31.79
2018-07-29T12:11:05.705Z,31.44
2018-07-29T12:12:05.704Z,31.20
2018-07-29T12:13:05.710Z,30.80
2018-07-29T12:14:05.752Z,30.86
2018-07-29T12:16:05.756Z,31.20
2018-07-29T12:17:05.707Z,32.50
2018-07-29T12:18:05.704Z,33.22
2018-07-29T12:19:05.721Z,32.94
2018-07-29T12:20:05.737Z,32.97
2018-07-29T12:21:06.003Z,33.79
2018-07-29T12:22:05.700Z,33.79
2018-07-29T12:23:05.699Z,32.85
2018-07-29T12:24:05.749Z,32.91
2018-07-29T12:25:05.701Z,33.51
2018-07-29T12:26:05.704Z,33.12
2018-07-29T12:27:06.459Z,33.04
2018-07-29T12:28:05.715Z,32.98
2018-07-29T12:29:05.711Z,32.94
2018-07-29T12:30:05.723Z,32.08
2018-07-29T12:31:05.715Z,32.54
2018-07-29T12:32:05.716Z,33.13
2018-07-29T12:33:06.118Z,33.55
2018-07-29T12:34:05.949Z,33.74
2018-07-29T12:35:05.774Z,32.87
2018-07-29T12:36:05.718Z,32.99
2018-07-29T12:37:05.720Z,33.35
2018-07-29T12:38:05.753Z,33.89
2018-07-29T12:39:06.073Z,33.84
2018-07-29T12:40:05.728Z,33.67
2018-07-29T12:41:05.730Z,33.32
2018-07-29T12:42:05.786Z,32.97
2018-07-29T12:43:05.734Z,33.01
2018-07-29T12:44:05.787Z,33.54
2018-07-29T12:45:08.203Z,33.71
2018-07-29T12:46:06.039Z,31.44
2018-07-29T12:47:05.744Z,30.99
2018-07-29T12:48:05.745Z,31.01
2018-07-29T12:49:05.824Z,31.48
2018-07-29T12:50:05.775Z,31.22
2018-07-29T12:51:05.864Z,30.77
2018-07-29T12:52:05.754Z,31.05
2018-07-29T12:53:06.113Z,31.70